Time;durP1;ratioP1;P1;durP2;ratioP2;P2;SDS_P1;SDS_P2;PMS_P1;PMS_P2;Temp;Humidity;BMP_temperature;BMP_pressure;BME280_temperature;BME280_humidity;BME280_pressure;Samples;Min_cycle;Max_cycle;Signal;HPM_P1;HPM_P2
2024/01/14 06:00:30;;;;;;;54.87;37.77;;;;;;;;;;1749816;28;20412;-79
2024/01/14 06:01:21;;;;;;;49.40;35.42;;;;;;;;;;1749180;28;20933;-79
2024/01/14 06:02:13;;;;;;;49.58;35.80;;;;;;;;;;1749640;28;20203;-79
2024/01/14 06:03:05;;;;;;;50.85;35.80;;;;;;;;;;1750214;28;20729;-79
2024/01/14 06:03:56;;;;;;;52.72;34.83;;;;;;;;;;1749980;28;20206;-79
2024/01/14 06:04:47;;;;;;;50.50;35.42;;;;;;;;;;1746794;28;20207;-79
2024/01/14 06:05:39;;;;;;;49.97;35.15;;;;;;;;;;1743102;28;20774;-79
2024/01/14 06:06:30;;;;;;;47.35;33.97;;;;;;;;;;1746022;28;20206;-79
2024/01/14 06:07:22;;;;;;;50.85;33.78;;;;;;;;;;1750186;28;20228;-79
2024/01/14 06:08:14;;;;;;;48.80;34.70;;;;;;;;;;1749119;28;20209;-79
2024/01/14 06:09:05;;;;;;;48.80;34.00;;;;;;;;;;1742947;28;20896;-80
2024/01/14 06:09:57;;;;;;;47.55;32.75;;;;;;;;;;1742955;28;20191;-80
2024/01/14 06:10:49;;;;;;;47.05;34.03;;;;;;;;;;1749529;28;20673;-79
2024/01/14 06:11:40;;;;;;;47.88;32.30;;;;;;;;;;1749939;28;20667;-80
2024/01/14 06:12:31;;;;;;;51.30;35.13;;;;;;;;;;1744532;28;20261;-80
2024/01/14 06:13:23;;;;;;;50.55;32.60;;;;;;;;;;1742773;28;20206;-80
2024/01/14 06:14:14;;;;;;;49.78;33.63;;;;;;;;;;1746339;28;20671;-79
2024/01/14 06:15:06;;;;;;;49.28;32.63;;;;;;;;;;1747957;28;20202;-79
2024/01/14 06:15:59;;;;;;;48.67;33.90;;;;;;;;;;1747895;28;20202;-80
2024/01/14 06:16:50;;;;;;;45.53;33.75;;;;;;;;;;1742709;28;20211;-80
2024/01/14 06:17:41;;;;;;;51.35;33.42;;;;;;;;;;1742578;28;20289;-79
2024/01/14 06:18:33;;;;;;;47.40;32.90;;;;;;;;;;1749569;28;20206;-80
2024/01/14 06:19:24;;;;;;;48.10;33.25;;;;;;;;;;1749481;28;20206;-79
2024/01/14 06:20:15;;;;;;;45.38;30.52;;;;;;;;;;1749195;28;20221;-80
2024/01/14 06:21:08;;;;;;;49.13;34.13;;;;;;;;;;1749562;28;20539;-80
2024/01/14 06:22:00;;;;;;;50.72;34.30;;;;;;;;;;1745685;28;20264;-80
2024/01/14 06:22:51;;;;;;;53.05;36.30;;;;;;;;;;1742824;28;20314;-80
2024/01/14 06:23:43;;;;;;;50.40;34.92;;;;;;;;;;1745599;28;20619;-80
2024/01/14 06:24:35;;;;;;;49.53;33.58;;;;;;;;;;1749703;28;20206;-80
2024/01/14 06:25:26;;;;;;;49.53;34.03;;;;;;;;;;1748980;28;20194;-80
2024/01/14 06:26:19;;;;;;;51.42;34.10;;;;;;;;;;1742914;28;20664;-80
2024/01/14 06:27:10;;;;;;;50.13;34.20;;;;;;;;;;1742794;28;20210;-80
2024/01/14 06:28:02;;;;;;;48.03;31.95;;;;;;;;;;1749632;28;20203;-80
2024/01/14 06:28:54;;;;;;;48.95;35.03;;;;;;;;;;1749662;28;20206;-80
2024/01/14 06:29:45;;;;;;;48.25;34.40;;;;;;;;;;1745090;28;20206;-80
2024/01/14 06:30:36;;;;;;;45.05;31.20;;;;;;;;;;1742953;28;20287;-80
2024/01/14 06:31:29;;;;;;;47.65;33.28;;;;;;;;;;1746546;28;20202;-80
2024/01/14 06:32:21;;;;;;;48.13;33.10;;;;;;;;;;1749566;28;20210;-79
2024/01/14 06:33:13;;;;;;;48.03;33.13;;;;;;;;;;1749691;28;20218;-80
2024/01/14 06:34:04;;;;;;;44.30;32.47;;;;;;;;;;1749906;28;20199;-80
2024/01/14 06:34:56;;;;;;;45.90;32.83;;;;;;;;;;1748430;28;20271;-80
2024/01/14 06:35:47;;;;;;;47.33;32.83;;;;;;;;;;1742582;28;20217;-80
2024/01/14 06:36:39;;;;;;;48.58;33.60;;;;;;;;;;1742522;28;20195;-80
2024/01/14 06:37:30;;;;;;;51.55;33.67;;;;;;;;;;1749392;28;20714;-80
2024/01/14 06:38:22;;;;;;;42.38;30.88;;;;;;;;;;1749381;28;20248;-80
2024/01/14 06:39:14;;;;;;;48.65;33.00;;;;;;;;;;1744691;28;20207;-80
2024/01/14 06:40:06;;;;;;;52.42;34.17;;;;;;;;;;1742242;28;20232;-80
2024/01/14 06:40:57;;;;;;;47.40;32.75;;;;;;;;;;1746520;28;20206;-81
2024/01/14 06:41:48;;;;;;;51.45;34.17;;;;;;;;;;1749172;28;20202;-80
2024/01/14 06:42:40;;;;;;;45.55;32.25;;;;;;;;;;1747362;28;20202;-80
2024/01/14 06:43:32;;;;;;;47.00;33.45;;;;;;;;;;1742460;28;20207;-80
2024/01/14 06:44:23;;;;;;;49.95;33.97;;;;;;;;;;1749341;28;20256;-80
2024/01/14 06:45:15;;;;;;;50.30;35.22;;;;;;;;;;1743381;28;20663;-80
2024/01/14 06:46:06;;;;;;;51.00;33.15;;;;;;;;;;1742554;28;20210;-80
2024/01/14 06:46:58;;;;;;;48.28;32.63;;;;;;;;;;1748530;28;20226;-80
2024/01/14 06:47:50;;;;;;;45.15;33.28;;;;;;;;;;1749734;28;20202;-80
2024/01/14 06:48:41;;;;;;;49.30;33.08;;;;;;;;;;1749874;28;20209;-80
2024/01/14 06:49:33;;;;;;;48.45;31.55;;;;;;;;;;1748515;28;20626;-80
2024/01/14 06:50:25;;;;;;;46.78;33.08;;;;;;;;;;1749551;28;20219;-80
2024/01/14 06:51:17;;;;;;;50.05;32.13;;;;;;;;;;1749440;28;20655;-80
2024/01/14 06:52:09;;;;;;;47.17;32.13;;;;;;;;;;1749198;28;20220;-80
2024/01/14 06:53:00;;;;;;;50.53;32.58;;;;;;;;;;1749631;28;20699;-80
2024/01/14 06:53:51;;;;;;;49.60;31.77;;;;;;;;;;1749730;28;20256;-80
2024/01/14 06:54:43;;;;;;;46.15;31.52;;;;;;;;;;1742680;28;20205;-80
2024/01/14 06:55:34;;;;;;;47.72;32.05;;;;;;;;;;1742805;28;20207;-80
2024/01/14 06:56:25;;;;;;;51.25;33.10;;;;;;;;;;1747893;28;20210;-80
2024/01/14 06:57:17;;;;;;;47.45;30.27;;;;;;;;;;1749282;28;20202;-80
2024/01/14 06:58:08;;;;;;;47.13;32.22;;;;;;;;;;1749551;28;20206;-79
2024/01/14 06:58:59;;;;;;;53.10;32.47;;;;;;;;;;1749322;28;20686;-80
2024/01/14 06:59:51;;;;;;;45.92;30.63;;;;;;;;;;1746594;28;20188;-80
2024/01/14 07:00:43;;;;;;;45.28;30.33;;;;;;;;;;1749864;28;20217;-80
2024/01/14 07:01:36;;;;;;;49.80;32.13;;;;;;;;;;1749600;28;20732;-80
2024/01/14 07:02:28;;;;;;;45.67;31.17;;;;;;;;;;1749273;28;20694;-80
2024/01/14 07:03:19;;;;;;;50.80;31.25;;;;;;;;;;1749491;28;20206;-80
2024/01/14 07:04:11;;;;;;;48.65;31.63;;;;;;;;;;1743077;28;20206;-80
2024/01/14 07:05:03;;;;;;;49.20;31.80;;;;;;;;;;1742272;28;20221;-80
2024/01/14 07:05:55;;;;;;;48.67;31.55;;;;;;;;;;1742160;28;20199;-79
2024/01/14 07:06:46;;;;;;;45.78;31.13;;;;;;;;;;1742579;28;20573;-80
2024/01/14 07:07:38;;;;;;;49.42;32.58;;;;;;;;;;1746216;28;20205;-79
2024/01/14 07:08:29;;;;;;;46.45;32.22;;;;;;;;;;1749398;28;20573;-79
2024/01/14 07:09:21;;;;;;;47.85;31.48;;;;;;;;;;1746925;28;20613;-79
2024/01/14 07:10:12;;;;;;;49.95;32.50;;;;;;;;;;1742181;28;20199;-79
2024/01/14 07:11:05;;;;;;;51.33;32.97;;;;;;;;;;1742648;28;20203;-79
2024/01/14 07:11:57;;;;;;;49.17;31.83;;;;;;;;;;1748870;28;20593;-79
2024/01/14 07:12:48;;;;;;;51.88;33.15;;;;;;;;;;1749180;28;20218;-79
2024/01/14 07:13:43;;;;;;;48.92;32.35;;;;;;;;;;1743366;28;20202;-79
2024/01/14 07:14:34;;;;;;;46.72;32.05;;;;;;;;;;1742078;28;20199;-79
2024/01/14 07:15:26;;;;;;;46.83;31.60;;;;;;;;;;1746334;28;20202;-79
2024/01/14 07:16:18;;;;;;;47.83;32.65;;;;;;;;;;1742218;28;20680;-79
2024/01/14 07:17:09;;;;;;;49.08;32.38;;;;;;;;;;1745661;28;20592;-79
2024/01/14 07:18:03;;;;;;;48.63;31.27;;;;;;;;;;1749739;28;20211;-79
2024/01/14 07:18:54;;;;;;;49.88;32.38;;;;;;;;;;1749264;28;20206;-79
2024/01/14 07:19:47;;;;;;;46.58;32.42;;;;;;;;;;1748441;28;20200;-79
2024/01/14 07:20:38;;;;;;;50.95;34.28;;;;;;;;;;1748440;28;20682;-79
2024/01/14 07:21:29;;;;;;;52.75;33.63;;;;;;;;;;1741937;28;20195;-79
2024/01/14 07:22:21;;;;;;;52.70;33.08;;;;;;;;;;1741935;28;20203;-79
2024/01/14 07:23:12;;;;;;;48.65;31.70;;;;;;;;;;1748820;28;20231;-79
2024/01/14 07:24:03;;;;;;;46.05;31.58;;;;;;;;;;1749154;28;20256;-79
2024/01/14 07:24:55;;;;;;;50.90;33.25;;;;;;;;;;1744489;28;20207;-79
2024/01/14 07:25:46;;;;;;;46.45;31.63;;;;;;;;;;1742278;28;20207;-79
2024/01/14 07:26:37;;;;;;;47.80;31.38;;;;;;;;;;1745133;28;20271;-79
2024/01/14 07:27:29;;;;;;;48.13;32.90;;;;;;;;;;1749035;28;20693;-79
2024/01/14 07:28:20;;;;;;;43.22;30.90;;;;;;;;;;1747583;28;20582;-79
2024/01/14 07:29:12;;;;;;;47.50;31.42;;;;;;;;;;1741960;28;20314;-79
2024/01/14 07:30:04;;;;;;;45.08;30.45;;;;;;;;;;1745587;28;20202;-79
2024/01/14 07:30:56;;;;;;;43.38;29.70;;;;;;;;;;1741919;28;20256;-79
2024/01/14 07:31:48;;;;;;;44.55;30.73;;;;;;;;;;1741843;28;20833;-79
2024/01/14 07:32:39;;;;;;;45.92;29.50;;;;;;;;;;1748002;28;20701;-79
2024/01/14 07:33:32;;;;;;;46.90;31.70;;;;;;;;;;1748997;28;20205;-82
2024/01/14 07:34:24;;;;;;;45.75;30.27;;;;;;;;;;1749120;28;20210;-80
2024/01/14 07:35:15;;;;;;;45.13;30.55;;;;;;;;;;1749532;28;20194;-81
2024/01/14 07:36:06;;;;;;;43.35;28.73;;;;;;;;;;1746236;28;20210;-81
2024/01/14 07:36:58;;;;;;;43.70;30.58;;;;;;;;;;1742183;28;20195;-80
2024/01/14 07:37:49;;;;;;;42.90;31.27;;;;;;;;;;1743174;28;20203;-80
2024/01/14 07:38:40;;;;;;;44.65;29.25;;;;;;;;;;1748938;28;20618;-80
2024/01/14 07:39:32;;;;;;;45.85;30.30;;;;;;;;;;1748206;28;20186;-80
2024/01/14 07:40:23;;;;;;;46.20;30.23;;;;;;;;;;1741803;28;20221;-80
2024/01/14 07:41:15;;;;;;;46.55;31.58;;;;;;;;;;1741865;28;20667;-80
2024/01/14 07:42:07;;;;;;;45.47;30.02;;;;;;;;;;1746913;28;20212;-80
2024/01/14 07:42:58;;;;;;;46.53;31.70;;;;;;;;;;1748657;28;20237;-80
2024/01/14 07:43:49;;;;;;;44.92;30.75;;;;;;;;;;1744950;28;20209;-80
2024/01/14 07:44:41;;;;;;;43.35;30.35;;;;;;;;;;1741928;28;20216;-79
2024/01/14 07:45:32;;;;;;;47.13;32.40;;;;;;;;;;1743779;28;20690;-79
2024/01/14 07:46:23;;;;;;;45.60;31.10;;;;;;;;;;1747047;28;20186;-79
2024/01/14 07:47:15;;;;;;;46.55;31.73;;;;;;;;;;1748309;28;20281;-78
2024/01/14 07:48:06;;;;;;;43.13;30.95;;;;;;;;;;1741588;28;20199;-79
2024/01/14 07:49:00;;;;;;;45.70;31.20;;;;;;;;;;1741600;28;20257;-78
2024/01/14 07:49:51;;;;;;;48.50;32.30;;;;;;;;;;1747439;28;20230;-79
2024/01/14 07:50:42;;;;;;;45.70;31.85;;;;;;;;;;1748535;28;20202;-77
2024/01/14 07:51:34;;;;;;;46.60;33.00;;;;;;;;;;1746147;28;20217;-76
2024/01/14 07:52:25;;;;;;;46.20;31.98;;;;;;;;;;1747988;28;20210;-77
2024/01/14 07:53:18;;;;;;;49.83;33.65;;;;;;;;;;1744906;28;20628;-76
2024/01/14 07:54:10;;;;;;;45.15;32.20;;;;;;;;;;1740974;28;20666;-76
2024/01/14 07:55:01;;;;;;;44.25;31.80;;;;;;;;;;1742606;28;20690;-76
2024/01/14 07:55:53;;;;;;;45.88;32.75;;;;;;;;;;1747968;28;20209;-77
2024/01/14 07:56:45;;;;;;;45.22;32.67;;;;;;;;;;1747935;28;20213;-76
2024/01/14 07:57:36;;;;;;;44.40;31.88;;;;;;;;;;1747933;28;20207;-77
2024/01/14 07:58:28;;;;;;;46.30;31.50;;;;;;;;;;1747940;28;20753;-77
2024/01/14 07:59:20;;;;;;;47.67;32.72;;;;;;;;;;1742188;28;20214;-76
2024/01/14 08:00:12;;;;;;;44.83;31.63;;;;;;;;;;1740675;28;20686;-76
2024/01/14 08:01:06;;;;;;;43.92;32.03;;;;;;;;;;1745265;28;20252;-76
2024/01/14 08:01:57;;;;;;;44.58;32.53;;;;;;;;;;1747766;28;20198;-76
2024/01/14 08:02:48;;;;;;;44.05;31.23;;;;;;;;;;1747909;28;20654;-77
2024/01/14 08:03:40;;;;;;;43.42;32.63;;;;;;;;;;1748009;28;20222;-76
2024/01/14 08:04:33;;;;;;;41.25;31.52;;;;;;;;;;1746419;28;20202;-76
2024/01/14 08:05:24;;;;;;;43.58;31.50;;;;;;;;;;1740988;28;20203;-77
2024/01/14 08:06:21;;;;;;;42.05;32.38;;;;;;;;;;1746422;28;20564;-77
2024/01/14 08:07:13;;;;;;;46.30;32.40;;;;;;;;;;1741089;28;20620;-77
2024/01/14 08:08:05;;;;;;;45.33;34.30;;;;;;;;;;1740983;28;20203;-77
2024/01/14 08:08:57;;;;;;;43.85;33.55;;;;;;;;;;1747398;28;20583;-77
2024/01/14 08:09:48;;;;;;;46.40;32.85;;;;;;;;;;1746872;28;20219;-77
2024/01/14 08:10:39;;;;;;;43.65;32.13;;;;;;;;;;1742176;28;20195;-77
2024/01/14 08:11:31;;;;;;;44.28;33.35;;;;;;;;;;1740907;28;20341;-76
2024/01/14 08:12:22;;;;;;;43.85;32.30;;;;;;;;;;1744228;28;20217;-76
2024/01/14 08:13:13;;;;;;;45.38;33.22;;;;;;;;;;1747833;28;20215;-76
2024/01/14 08:14:05;;;;;;;46.75;32.35;;;;;;;;;;1747707;28;20202;-76
2024/01/14 08:14:56;;;;;;;47.90;35.65;;;;;;;;;;1747939;28;20202;-75
2024/01/14 08:15:48;;;;;;;45.13;33.63;;;;;;;;;;1747751;28;20202;-76
2024/01/14 08:16:40;;;;;;;44.00;32.97;;;;;;;;;;1741050;28;20203;-77
2024/01/14 08:17:31;;;;;;;42.85;32.40;;;;;;;;;;1740732;28;20272;-77
2024/01/14 08:18:23;;;;;;;45.15;31.08;;;;;;;;;;1746576;28;20207;-76
2024/01/14 08:19:14;;;;;;;41.50;30.00;;;;;;;;;;1747872;28;20199;-76
2024/01/14 08:20:10;;;;;;;45.08;33.00;;;;;;;;;;1743464;28;20199;-76
2024/01/14 08:21:02;;;;;;;45.70;33.95;;;;;;;;;;1740986;28;20207;-76
2024/01/14 08:21:54;;;;;;;44.92;32.83;;;;;;;;;;1744200;28;20682;-77
2024/01/14 08:22:46;;;;;;;45.75;33.50;;;;;;;;;;1747809;28;20202;-77
2024/01/14 08:23:37;;;;;;;44.90;32.25;;;;;;;;;;1745960;28;20210;-77
2024/01/14 08:24:29;;;;;;;40.90;31.92;;;;;;;;;;1745055;28;20194;-77
2024/01/14 08:25:21;;;;;;;39.15;29.45;;;;;;;;;;1748963;28;20210;-77
2024/01/14 08:26:14;;;;;;;43.92;31.25;;;;;;;;;;1742274;28;20283;-77
2024/01/14 08:27:05;;;;;;;44.40;30.83;;;;;;;;;;1742295;28;20271;-76
2024/01/14 08:27:56;;;;;;;41.78;30.70;;;;;;;;;;1748240;28;20230;-77
2024/01/14 08:28:48;;;;;;;43.90;32.97;;;;;;;;;;1749219;28;20567;-77
2024/01/14 08:29:40;;;;;;;45.13;32.58;;;;;;;;;;1748693;28;20286;-76
2024/01/14 08:30:32;;;;;;;42.85;31.83;;;;;;;;;;1749277;28;20760;-76
2024/01/14 08:31:23;;;;;;;44.78;30.92;;;;;;;;;;1747088;28;20210;-75
2024/01/14 08:32:15;;;;;;;42.92;32.47;;;;;;;;;;1742262;28;20233;-77
2024/01/14 08:33:07;;;;;;;45.60;31.80;;;;;;;;;;1743627;28;20215;-77
2024/01/14 08:33:59;;;;;;;44.25;32.33;;;;;;;;;;1749125;28;20198;-76
2024/01/14 08:34:51;;;;;;;45.03;32.83;;;;;;;;;;1748984;28;20234;-77
2024/01/14 08:35:44;;;;;;;44.40;33.10;;;;;;;;;;1742258;28;20214;-77
2024/01/14 08:36:38;;;;;;;44.50;32.88;;;;;;;;;;1742291;28;20210;-77
2024/01/14 08:37:29;;;;;;;42.92;32.47;;;;;;;;;;1748343;28;20199;-77
2024/01/14 08:38:20;;;;;;;42.35;32.00;;;;;;;;;;1749203;28;20809;-76
2024/01/14 08:39:12;;;;;;;45.25;32.03;;;;;;;;;;1744555;28;20203;-77
2024/01/14 08:40:03;;;;;;;46.53;33.13;;;;;;;;;;1741990;28;20202;-76
2024/01/14 08:40:55;;;;;;;46.75;34.60;;;;;;;;;;1743628;28;20194;-76
2024/01/14 08:41:46;;;;;;;45.25;31.88;;;;;;;;;;1742271;28;20207;-77
2024/01/14 08:42:39;;;;;;;44.65;31.58;;;;;;;;;;1743466;28;20203;-77
2024/01/14 08:43:30;;;;;;;43.63;33.95;;;;;;;;;;1748912;28;20670;-76
2024/01/14 08:44:23;;;;;;;46.15;33.30;;;;;;;;;;1748867;28;20791;-76
2024/01/14 08:45:14;;;;;;;40.30;30.23;;;;;;;;;;1749028;28;20237;-77
2024/01/14 08:46:06;;;;;;;46.50;32.47;;;;;;;;;;1749053;28;20202;-76
2024/01/14 08:46:57;;;;;;;43.08;30.92;;;;;;;;;;1743433;28;20222;-77
2024/01/14 08:47:49;;;;;;;41.45;31.00;;;;;;;;;;1742219;28;20281;-76
2024/01/14 08:48:40;;;;;;;43.65;31.80;;;;;;;;;;1746382;28;20217;-78
2024/01/14 08:49:31;;;;;;;42.45;30.85;;;;;;;;;;1748694;28;20198;-79
2024/01/14 08:50:23;;;;;;;41.85;30.70;;;;;;;;;;1746655;28;20218;-78
2024/01/14 08:51:16;;;;;;;42.03;31.75;;;;;;;;;;1742216;28;20218;-78
2024/01/14 08:52:08;;;;;;;42.90;30.48;;;;;;;;;;1743310;28;20341;-78
2024/01/14 08:52:59;;;;;;;46.70;32.75;;;;;;;;;;1749104;28;20751;-77
2024/01/14 08:53:51;;;;;;;43.90;31.40;;;;;;;;;;1748911;28;20218;-77
2024/01/14 08:54:42;;;;;;;43.47;30.33;;;;;;;;;;1742245;28;20203;-76
2024/01/14 08:55:34;;;;;;;43.03;32.15;;;;;;;;;;1742157;28;20199;-77
2024/01/14 08:56:26;;;;;;;42.80;31.88;;;;;;;;;;1747213;28;20202;-77
2024/01/14 08:57:17;;;;;;;46.40;33.20;;;;;;;;;;1748316;28;20217;-77
2024/01/14 08:58:09;;;;;;;47.22;33.17;;;;;;;;;;1748318;28;20588;-77
2024/01/14 08:59:00;;;;;;;42.00;31.40;;;;;;;;;;1749216;28;20332;-78
2024/01/14 08:59:51;;;;;;;44.15;31.88;;;;;;;;;;1746780;28;20552;-78
2024/01/14 09:00:43;;;;;;;40.13;31.25;;;;;;;;;;1742277;28;20280;-78
2024/01/14 09:01:34;;;;;;;43.92;32.13;;;;;;;;;;1742755;28;20207;-77
2024/01/14 09:02:26;;;;;;;42.75;31.10;;;;;;;;;;1748942;28;20198;-77
2024/01/14 09:03:18;;;;;;;45.83;31.60;;;;;;;;;;1748891;28;20219;-77
2024/01/14 09:04:09;;;;;;;41.15;30.42;;;;;;;;;;1748856;28;20202;-77
2024/01/14 09:05:01;;;;;;;40.75;30.33;;;;;;;;;;1748979;28;20260;-77
2024/01/14 09:05:53;;;;;;;40.28;30.20;;;;;;;;;;1744208;28;20203;-77
2024/01/14 09:06:45;;;;;;;40.88;31.30;;;;;;;;;;1742119;28;20210;-77
2024/01/14 09:07:36;;;;;;;42.85;30.30;;;;;;;;;;1742052;28;20636;-77
2024/01/14 09:08:28;;;;;;;40.88;29.05;;;;;;;;;;1742104;28;20207;-77
2024/01/14 09:09:19;;;;;;;42.67;30.50;;;;;;;;;;1742194;28;20210;-77
2024/01/14 09:10:10;;;;;;;40.28;31.35;;;;;;;;;;1741812;28;20647;-78
2024/01/14 09:11:03;;;;;;;43.20;31.23;;;;;;;;;;1742232;28;20740;-76
2024/01/14 09:11:54;;;;;;;44.55;30.70;;;;;;;;;;1749143;28;20203;-78
2024/01/14 09:12:46;;;;;;;42.13;31.48;;;;;;;;;;1748950;28;20612;-77
2024/01/14 09:13:37;;;;;;;46.20;32.90;;;;;;;;;;1748825;28;20221;-77
2024/01/14 09:14:28;;;;;;;44.20;31.98;;;;;;;;;;1747300;28;20304;-78
2024/01/14 09:15:20;;;;;;;45.65;31.23;;;;;;;;;;1745030;28;20207;-77
2024/01/14 09:16:11;;;;;;;42.03;31.15;;;;;;;;;;1742056;28;20199;-77
2024/01/14 09:17:02;;;;;;;44.17;33.58;;;;;;;;;;1744542;28;20235;-77
2024/01/14 09:17:54;;;;;;;69.25;45.35;;;;;;;;;;1748886;28;20264;-77
2024/01/14 09:18:45;;;;;;;79.00;51.92;;;;;;;;;;1748952;28;20206;-77
2024/01/14 09:19:37;;;;;;;74.75;48.33;;;;;;;;;;1748647;28;20251;-78
2024/01/14 09:20:29;;;;;;;57.92;41.20;;;;;;;;;;1749063;28;20690;-78
2024/01/14 09:21:20;;;;;;;54.78;38.92;;;;;;;;;;1742668;28;20203;-78
2024/01/14 09:22:13;;;;;;;49.78;37.53;;;;;;;;;;1741903;28;20192;-78
2024/01/14 09:23:04;;;;;;;60.80;43.78;;;;;;;;;;1747020;28;20230;-77
2024/01/14 09:23:56;;;;;;;48.90;35.45;;;;;;;;;;1749004;28;20647;-77
2024/01/14 09:24:47;;;;;;;45.53;32.88;;;;;;;;;;1745399;28;20207;-77
2024/01/14 09:25:39;;;;;;;51.83;33.78;;;;;;;;;;1742098;28;20234;-77
2024/01/14 09:26:31;;;;;;;41.78;31.02;;;;;;;;;;1743896;28;20201;-77
2024/01/14 09:27:22;;;;;;;43.60;31.33;;;;;;;;;;1748938;28;20210;-78
2024/01/14 09:28:14;;;;;;;46.20;31.10;;;;;;;;;;1748897;28;20252;-77
2024/01/14 09:29:05;;;;;;;42.03;31.52;;;;;;;;;;1748945;28;20804;-77
2024/01/14 09:29:57;;;;;;;41.45;29.17;;;;;;;;;;1748570;28;20194;-78
2024/01/14 09:30:48;;;;;;;44.00;30.17;;;;;;;;;;1744161;28;20211;-76
2024/01/14 09:31:40;;;;;;;45.78;32.30;;;;;;;;;;1747686;28;20282;-77
2024/01/14 09:32:32;;;;;;;39.13;29.58;;;;;;;;;;1744410;28;20667;-77
2024/01/14 09:33:23;;;;;;;41.63;29.95;;;;;;;;;;1744488;28;20257;-77
2024/01/14 09:34:14;;;;;;;41.80;29.90;;;;;;;;;;1745964;28;20206;-78
2024/01/14 09:35:06;;;;;;;43.25;30.60;;;;;;;;;;1741709;28;20199;-77
2024/01/14 09:35:57;;;;;;;45.78;32.10;;;;;;;;;;1742053;28;20583;-77
2024/01/14 09:36:49;;;;;;;39.28;31.00;;;;;;;;;;1748827;28;20199;-76
2024/01/14 09:37:42;;;;;;;41.42;31.00;;;;;;;;;;1748783;28;20209;-76
2024/01/14 09:38:33;;;;;;;42.00;31.75;;;;;;;;;;1741991;28;20199;-76
2024/01/14 09:39:25;;;;;;;44.67;31.20;;;;;;;;;;1742042;28;20207;-77
2024/01/14 09:40:16;;;;;;;43.05;29.85;;;;;;;;;;1741856;28;20207;-76
2024/01/14 09:41:13;;;;;;;45.80;30.35;;;;;;;;;;1741761;28;20199;-77
2024/01/14 09:42:08;;;;;;;42.40;28.50;;;;;;;;;;1741804;28;20204;-77
2024/01/14 09:43:00;;;;;;;40.60;30.65;;;;;;;;;;1741797;28;20230;-78
2024/01/14 09:43:51;;;;;;;42.70;31.30;;;;;;;;;;1745328;28;20198;-78
2024/01/14 09:44:44;;;;;;;38.40;29.90;;;;;;;;;;1748800;28;20256;-77
2024/01/14 09:45:35;;;;;;;39.28;30.73;;;;;;;;;;1748637;28;20594;-76
2024/01/14 09:46:26;;;;;;;45.13;31.80;;;;;;;;;;1748783;28;20232;-77
2024/01/14 09:47:19;;;;;;;43.28;30.58;;;;;;;;;;1748189;28;20202;-77
2024/01/14 09:48:10;;;;;;;43.78;31.08;;;;;;;;;;1742907;28;20221;-77
2024/01/14 09:49:01;;;;;;;41.30;28.98;;;;;;;;;;1741987;28;20199;-77
2024/01/14 09:49:55;;;;;;;41.10;30.13;;;;;;;;;;1747532;28;20204;-77
2024/01/14 09:50:47;;;;;;;42.97;31.05;;;;;;;;;;1748685;28;20214;-77
2024/01/14 09:51:39;;;;;;;40.63;30.48;;;;;;;;;;1748691;28;20338;-77
2024/01/14 09:52:31;;;;;;;41.83;30.10;;;;;;;;;;1748610;28;20259;-77
2024/01/14 09:53:24;;;;;;;38.03;29.15;;;;;;;;;;1745189;28;20211;-77
2024/01/14 09:54:15;;;;;;;40.42;29.45;;;;;;;;;;1741746;28;20222;-77
2024/01/14 09:55:08;;;;;;;43.22;30.63;;;;;;;;;;1743929;28;20286;-77
2024/01/14 09:56:01;;;;;;;42.97;30.90;;;;;;;;;;1748791;28;20206;-77
2024/01/14 09:56:53;;;;;;;47.45;31.85;;;;;;;;;;1747648;28;20572;-76
2024/01/14 09:57:47;;;;;;;41.92;30.60;;;;;;;;;;1741775;28;20261;-77
2024/01/14 09:58:40;;;;;;;41.85;29.58;;;;;;;;;;1741772;28;20207;-76
2024/01/14 09:59:32;;;;;;;45.72;30.73;;;;;;;;;;1741267;28;20195;-76
2024/01/14 10:00:24;;;;;;;41.97;31.05;;;;;;;;;;1741708;28;20226;-77
2024/01/14 10:01:18;;;;;;;42.40;30.55;;;;;;;;;;1747495;28;20206;-77
2024/01/14 10:02:10;;;;;;;45.30;31.42;;;;;;;;;;1748669;28;20201;-76
2024/01/14 10:03:01;;;;;;;41.08;29.98;;;;;;;;;;1743916;28;20238;-76
2024/01/14 10:03:53;;;;;;;40.85;29.85;;;;;;;;;;1741592;28;20203;-77
2024/01/14 10:04:44;;;;;;;42.45;30.33;;;;;;;;;;1745065;28;20202;-77
2024/01/14 10:05:37;;;;;;;43.47;30.38;;;;;;;;;;1741941;28;20725;-78
2024/01/14 10:06:29;;;;;;;42.20;29.83;;;;;;;;;;1742614;28;20260;-78
2024/01/14 10:07:22;;;;;;;46.53;30.88;;;;;;;;;;1748420;28;20273;-79
2024/01/14 10:08:13;;;;;;;45.78;32.38;;;;;;;;;;1748708;28;20199;-78
2024/01/14 10:09:05;;;;;;;43.40;31.73;;;;;;;;;;1748793;28;20248;-79
2024/01/14 10:09:58;;;;;;;44.17;31.05;;;;;;;;;;1748410;28;20229;-77
2024/01/14 10:10:51;;;;;;;44.05;31.05;;;;;;;;;;1742679;28;20237;-77
2024/01/14 10:11:43;;;;;;;40.95;29.05;;;;;;;;;;1741955;28;20229;-77
2024/01/14 10:12:35;;;;;;;43.05;31.60;;;;;;;;;;1746283;28;20662;-77
2024/01/14 10:13:26;;;;;;;43.92;30.98;;;;;;;;;;1748533;28;20218;-77
2024/01/14 10:14:18;;;;;;;55.13;36.90;;;;;;;;;;1745239;28;20203;-77
2024/01/14 10:15:10;;;;;;;50.20;36.67;;;;;;;;;;1741603;28;20260;-77
2024/01/14 10:16:02;;;;;;;45.10;34.28;;;;;;;;;;1743434;28;20207;-76
2024/01/14 10:16:56;;;;;;;46.38;31.80;;;;;;;;;;1748551;28;20202;-77
2024/01/14 10:17:48;;;;;;;43.47;30.08;;;;;;;;;;1748410;28;20211;-77
2024/01/14 10:18:39;;;;;;;46.60;33.13;;;;;;;;;;1748536;28;20259;-77
2024/01/14 10:19:31;;;;;;;44.90;31.50;;;;;;;;;;1742889;28;20681;-76
2024/01/14 10:20:23;;;;;;;42.55;30.90;;;;;;;;;;1747774;28;20237;-77
2024/01/14 10:21:15;;;;;;;39.65;29.48;;;;;;;;;;1748563;28;20658;-77
2024/01/14 10:22:06;;;;;;;44.47;31.65;;;;;;;;;;1748439;28;20568;-77
2024/01/14 10:22:58;;;;;;;45.03;32.05;;;;;;;;;;1748683;28;20253;-76
2024/01/14 10:23:49;;;;;;;46.33;32.58;;;;;;;;;;1745028;28;20214;-75
2024/01/14 10:24:42;;;;;;;45.65;32.78;;;;;;;;;;1741695;28;20660;-75
2024/01/14 10:25:34;;;;;;;46.58;32.33;;;;;;;;;;1743345;28;20206;-75
2024/01/14 10:26:25;;;;;;;46.03;31.98;;;;;;;;;;1748334;28;20304;-76
2024/01/14 10:27:16;;;;;;;51.60;36.80;;;;;;;;;;1748078;28;20198;-76
2024/01/14 10:28:08;;;;;;;42.50;32.28;;;;;;;;;;1741487;28;20199;-77
2024/01/14 10:29:03;;;;;;;42.95;31.08;;;;;;;;;;1741516;28;20240;-77
2024/01/14 10:29:55;;;;;;;45.00;34.13;;;;;;;;;;1747340;28;20207;-77
2024/01/14 10:30:46;;;;;;;43.05;32.22;;;;;;;;;;1748362;28;20233;-77
2024/01/14 10:31:38;;;;;;;41.97;30.70;;;;;;;;;;1743588;28;20211;-76
2024/01/14 10:32:33;;;;;;;42.42;30.30;;;;;;;;;;1741426;28;20268;-76
2024/01/14 10:33:25;;;;;;;39.25;28.27;;;;;;;;;;1745228;28;20210;-77
2024/01/14 10:34:17;;;;;;;41.58;30.50;;;;;;;;;;1748246;28;20202;-76
2024/01/14 10:35:10;;;;;;;41.97;30.02;;;;;;;;;;1745881;28;20579;-77
2024/01/14 10:36:02;;;;;;;42.00;29.98;;;;;;;;;;1742679;28;20187;-78
2024/01/14 10:36:53;;;;;;;40.67;30.67;;;;;;;;;;1742907;28;20210;-78
2024/01/14 10:37:45;;;;;;;36.38;27.25;;;;;;;;;;1748507;28;20191;-77
2024/01/14 10:38:36;;;;;;;41.22;29.05;;;;;;;;;;1748559;28;20230;-78
2024/01/14 10:39:30;;;;;;;44.53;30.70;;;;;;;;;;1748122;28;20269;-76
2024/01/14 10:40:23;;;;;;;45.22;29.73;;;;;;;;;;1748278;28;20213;-76
2024/01/14 10:41:14;;;;;;;43.95;29.83;;;;;;;;;;1742732;28;20679;-77
2024/01/14 10:42:06;;;;;;;38.53;28.92;;;;;;;;;;1741427;28;20195;-76
2024/01/14 10:42:57;;;;;;;38.97;29.58;;;;;;;;;;1745469;28;20242;-77
2024/01/14 10:43:50;;;;;;;37.15;29.77;;;;;;;;;;1748454;28;20539;-77
2024/01/14 10:44:41;;;;;;;41.78;31.85;;;;;;;;;;1745863;28;20206;-77
2024/01/14 10:45:33;;;;;;;38.20;29.35;;;;;;;;;;1741441;28;20206;-77
2024/01/14 10:46:25;;;;;;;37.67;28.23;;;;;;;;;;1742337;28;20203;-78
2024/01/14 10:47:17;;;;;;;36.33;28.65;;;;;;;;;;1747997;28;20252;-77
2024/01/14 10:48:11;;;;;;;42.33;30.20;;;;;;;;;;1748431;28;20699;-77
2024/01/14 10:49:06;;;;;;;41.17;30.50;;;;;;;;;;1741530;28;20203;-77
2024/01/14 10:50:00;;;;;;;41.55;30.77;;;;;;;;;;1742916;28;20297;-77
2024/01/14 10:50:54;;;;;;;38.95;28.70;;;;;;;;;;1741908;28;20262;-76
2024/01/14 10:51:46;;;;;;;41.00;29.67;;;;;;;;;;1741680;28;20211;-78
2024/01/14 10:52:39;;;;;;;40.10;30.63;;;;;;;;;;1746630;28;20220;-78
2024/01/14 10:53:35;;;;;;;41.38;30.27;;;;;;;;;;1748359;28;20202;-76
2024/01/14 10:54:28;;;;;;;39.20;28.10;;;;;;;;;;1748359;28;20214;-77
2024/01/14 10:55:26;;;;;;;39.30;28.90;;;;;;;;;;1748310;28;20206;-76
2024/01/14 10:56:21;;;;;;;37.00;27.80;;;;;;;;;;1744269;28;20207;-77
2024/01/14 10:57:15;;;;;;;34.13;26.23;;;;;;;;;;1741355;28;20203;-76
2024/01/14 10:58:07;;;;;;;36.05;27.45;;;;;;;;;;1744499;28;20198;-77
2024/01/14 10:59:00;;;;;;;37.28;27.90;;;;;;;;;;1748222;28;20203;-76
2024/01/14 10:59:56;;;;;;;38.50;28.90;;;;;;;;;;1745738;28;20825;-77
2024/01/14 11:00:50;;;;;;;38.20;28.45;;;;;;;;;;1741294;28;20241;-77
2024/01/14 11:01:45;;;;;;;37.00;28.08;;;;;;;;;;1742618;28;20207;-76